sensor_id;sensor_type;location;lat;lon;timestamp;P1;durP1;ratioP1;P2;durP2;ratioP2
10904;SDS011;5505;51.450;9.254;2023-02-28T00:00:38;2.57;;;1.23;;
10904;SDS011;5505;51.450;9.254;2023-02-28T00:03:25;1.60;;;1.17;;
10904;SDS011;5505;51.450;9.254;2023-02-28T00:06:13;2.17;;;1.30;;
10904;SDS011;5505;51.450;9.254;2023-02-28T00:09:00;1.30;;;1.20;;
10904;SDS011;5505;51.450;9.254;2023-02-28T00:11:47;1.27;;;1.17;;
10904;SDS011;5505;51.450;9.254;2023-02-28T00:14:34;2.43;;;1.37;;
10904;SDS011;5505;51.450;9.254;2023-02-28T00:17:21;1.90;;;1.20;;
10904;SDS011;5505;51.450;9.254;2023-02-28T00:20:10;5.47;;;1.30;;
10904;SDS011;5505;51.450;9.254;2023-02-28T00:22:59;1.27;;;1.10;;
10904;SDS011;5505;51.450;9.254;2023-02-28T00:25:46;1.63;;;1.20;;
10904;SDS011;5505;51.450;9.254;2023-02-28T00:28:33;1.80;;;1.27;;
10904;SDS011;5505;51.450;9.254;2023-02-28T00:31:19;1.30;;;1.03;;
10904;SDS011;5505;51.450;9.254;2023-02-28T00:34:06;1.47;;;1.30;;
10904;SDS011;5505;51.450;9.254;2023-02-28T00:36:53;1.87;;;1.40;;
10904;SDS011;5505;51.450;9.254;2023-02-28T00:39:42;1.53;;;1.20;;
10904;SDS011;5505;51.450;9.254;2023-02-28T00:42:29;2.47;;;1.23;;
10904;SDS011;5505;51.450;9.254;2023-02-28T00:45:18;1.37;;;1.10;;
10904;SDS011;5505;51.450;9.254;2023-02-28T00:48:05;1.50;;;1.40;;
10904;SDS011;5505;51.450;9.254;2023-02-28T00:50:52;1.43;;;1.23;;
10904;SDS011;5505;51.450;9.254;2023-02-28T00:53:39;1.20;;;1.10;;
10904;SDS011;5505;51.450;9.254;2023-02-28T00:56:27;2.43;;;1.40;;
10904;SDS011;5505;51.450;9.254;2023-02-28T00:59:14;1.53;;;1.10;;
10904;SDS011;5505;51.450;9.254;2023-02-28T01:02:01;1.30;;;0.90;;
10904;SDS011;5505;51.450;9.254;2023-02-28T01:04:48;2.00;;;1.33;;
10904;SDS011;5505;51.450;9.254;2023-02-28T01:07:35;3.07;;;1.00;;
10904;SDS011;5505;51.450;9.254;2023-02-28T01:10:23;1.83;;;1.10;;
10904;SDS011;5505;51.450;9.254;2023-02-28T01:13:13;2.00;;;1.20;;
10904;SDS011;5505;51.450;9.254;2023-02-28T01:16:01;1.60;;;1.20;;
10904;SDS011;5505;51.450;9.254;2023-02-28T01:18:48;1.60;;;1.13;;
10904;SDS011;5505;51.450;9.254;2023-02-28T01:21:35;2.80;;;1.03;;
10904;SDS011;5505;51.450;9.254;2023-02-28T01:24:22;1.33;;;1.23;;
10904;SDS011;5505;51.450;9.254;2023-02-28T01:27:09;1.23;;;1.03;;
10904;SDS011;5505;51.450;9.254;2023-02-28T01:29:57;1.00;;;0.83;;
10904;SDS011;5505;51.450;9.254;2023-02-28T01:32:44;1.00;;;0.80;;
10904;SDS011;5505;51.450;9.254;2023-02-28T01:35:32;0.90;;;0.90;;
10904;SDS011;5505;51.450;9.254;2023-02-28T01:38:19;1.63;;;0.83;;
10904;SDS011;5505;51.450;9.254;2023-02-28T01:41:05;1.20;;;0.97;;
10904;SDS011;5505;51.450;9.254;2023-02-28T01:44:01;1.63;;;1.00;;
10904;SDS011;5505;51.450;9.254;2023-02-28T01:46:51;1.70;;;1.17;;
10904;SDS011;5505;51.450;9.254;2023-02-28T01:49:38;2.30;;;1.37;;
10904;SDS011;5505;51.450;9.254;2023-02-28T01:52:25;1.40;;;1.30;;
10904;SDS011;5505;51.450;9.254;2023-02-28T01:55:13;1.87;;;0.90;;
10904;SDS011;5505;51.450;9.254;2023-02-28T01:58:03;2.33;;;1.10;;
10904;SDS011;5505;51.450;9.254;2023-02-28T02:00:51;3.77;;;1.03;;
10904;SDS011;5505;51.450;9.254;2023-02-28T02:03:39;0.97;;;0.90;;
10904;SDS011;5505;51.450;9.254;2023-02-28T02:06:27;3.17;;;1.33;;
10904;SDS011;5505;51.450;9.254;2023-02-28T02:09:16;1.30;;;1.20;;
10904;SDS011;5505;51.450;9.254;2023-02-28T02:12:08;7.10;;;2.70;;
10904;SDS011;5505;51.450;9.254;2023-02-28T02:15:04;2.63;;;1.83;;
10904;SDS011;5505;51.450;9.254;2023-02-28T02:17:58;3.47;;;2.00;;
10904;SDS011;5505;51.450;9.254;2023-02-28T02:21:12;5.20;;;2.83;;
10904;SDS011;5505;51.450;9.254;2023-02-28T02:24:48;5.13;;;1.93;;
10904;SDS011;5505;51.450;9.254;2023-02-28T02:27:48;1.80;;;1.30;;
10904;SDS011;5505;51.450;9.254;2023-02-28T02:31:17;2.43;;;1.97;;
10904;SDS011;5505;51.450;9.254;2023-02-28T02:34:48;2.23;;;1.50;;
10904;SDS011;5505;51.450;9.254;2023-02-28T02:37:40;8.40;;;5.03;;
10904;SDS011;5505;51.450;9.254;2023-02-28T02:40:35;3.60;;;2.50;;
10904;SDS011;5505;51.450;9.254;2023-02-28T02:43:25;1.40;;;1.30;;
10904;SDS011;5505;51.450;9.254;2023-02-28T02:46:17;2.63;;;1.30;;
10904;SDS011;5505;51.450;9.254;2023-02-28T02:49:08;1.60;;;1.30;;
10904;SDS011;5505;51.450;9.254;2023-02-28T02:52:01;1.90;;;1.33;;
10904;SDS011;5505;51.450;9.254;2023-02-28T02:54:50;2.77;;;1.50;;
10904;SDS011;5505;51.450;9.254;2023-02-28T02:57:43;2.03;;;1.37;;
10904;SDS011;5505;51.450;9.254;2023-02-28T03:00:34;2.13;;;1.67;;
10904;SDS011;5505;51.450;9.254;2023-02-28T03:03:25;2.47;;;2.20;;
10904;SDS011;5505;51.450;9.254;2023-02-28T03:06:14;2.30;;;1.60;;
10904;SDS011;5505;51.450;9.254;2023-02-28T03:09:03;4.10;;;2.63;;
10904;SDS011;5505;51.450;9.254;2023-02-28T03:11:52;4.63;;;3.17;;
10904;SDS011;5505;51.450;9.254;2023-02-28T03:14:44;4.63;;;2.30;;
10904;SDS011;5505;51.450;9.254;2023-02-28T03:17:47;2.47;;;1.50;;
10904;SDS011;5505;51.450;9.254;2023-02-28T03:20:45;1.30;;;1.17;;
10904;SDS011;5505;51.450;9.254;2023-02-28T03:23:42;1.73;;;1.53;;
10904;SDS011;5505;51.450;9.254;2023-02-28T03:26:36;1.20;;;1.20;;
10904;SDS011;5505;51.450;9.254;2023-02-28T03:29:27;1.77;;;1.40;;
10904;SDS011;5505;51.450;9.254;2023-02-28T03:32:21;2.60;;;1.10;;
10904;SDS011;5505;51.450;9.254;2023-02-28T03:35:14;3.67;;;2.57;;
10904;SDS011;5505;51.450;9.254;2023-02-28T03:38:08;2.03;;;1.50;;
10904;SDS011;5505;51.450;9.254;2023-02-28T03:41:05;3.73;;;2.00;;
10904;SDS011;5505;51.450;9.254;2023-02-28T03:44:05;2.13;;;1.70;;
10904;SDS011;5505;51.450;9.254;2023-02-28T03:47:00;1.60;;;1.40;;
10904;SDS011;5505;51.450;9.254;2023-02-28T03:49:52;2.30;;;1.63;;
10904;SDS011;5505;51.450;9.254;2023-02-28T03:52:44;2.63;;;1.50;;
10904;SDS011;5505;51.450;9.254;2023-02-28T03:55:36;1.83;;;1.47;;
10904;SDS011;5505;51.450;9.254;2023-02-28T03:58:27;2.87;;;1.83;;
10904;SDS011;5505;51.450;9.254;2023-02-28T04:01:20;2.30;;;1.53;;
10904;SDS011;5505;51.450;9.254;2023-02-28T04:04:10;2.70;;;1.53;;
10904;SDS011;5505;51.450;9.254;2023-02-28T04:07:01;1.57;;;1.20;;
10904;SDS011;5505;51.450;9.254;2023-02-28T04:09:49;1.40;;;1.27;;
10904;SDS011;5505;51.450;9.254;2023-02-28T04:12:36;1.13;;;1.10;;
10904;SDS011;5505;51.450;9.254;2023-02-28T04:15:23;2.47;;;1.40;;
10904;SDS011;5505;51.450;9.254;2023-02-28T04:18:11;1.60;;;1.07;;
10904;SDS011;5505;51.450;9.254;2023-02-28T04:21:00;2.20;;;1.20;;
10904;SDS011;5505;51.450;9.254;2023-02-28T04:23:46;1.97;;;1.40;;
10904;SDS011;5505;51.450;9.254;2023-02-28T04:26:34;1.07;;;1.00;;
10904;SDS011;5505;51.450;9.254;2023-02-28T04:29:22;1.27;;;1.10;;
10904;SDS011;5505;51.450;9.254;2023-02-28T04:32:10;1.50;;;1.17;;
10904;SDS011;5505;51.450;9.254;2023-02-28T04:34:59;1.70;;;1.27;;
10904;SDS011;5505;51.450;9.254;2023-02-28T04:37:47;2.07;;;1.17;;
10904;SDS011;5505;51.450;9.254;2023-02-28T04:40:33;1.40;;;1.23;;
10904;SDS011;5505;51.450;9.254;2023-02-28T04:43:21;1.60;;;1.50;;
10904;SDS011;5505;51.450;9.254;2023-02-28T04:46:09;1.80;;;1.40;;
10904;SDS011;5505;51.450;9.254;2023-02-28T04:48:56;3.17;;;1.20;;
10904;SDS011;5505;51.450;9.254;2023-02-28T04:51:45;1.83;;;1.27;;
10904;SDS011;5505;51.450;9.254;2023-02-28T04:54:32;2.47;;;1.20;;
10904;SDS011;5505;51.450;9.254;2023-02-28T04:57:19;1.50;;;1.13;;
10904;SDS011;5505;51.450;9.254;2023-02-28T05:00:07;1.70;;;1.13;;
10904;SDS011;5505;51.450;9.254;2023-02-28T05:02:56;1.20;;;1.00;;
10904;SDS011;5505;51.450;9.254;2023-02-28T05:05:43;2.43;;;1.17;;
10904;SDS011;5505;51.450;9.254;2023-02-28T05:08:31;1.90;;;1.40;;
10904;SDS011;5505;51.450;9.254;2023-02-28T05:11:19;1.17;;;1.00;;
10904;SDS011;5505;51.450;9.254;2023-02-28T05:14:09;2.07;;;1.20;;
10904;SDS011;5505;51.450;9.254;2023-02-28T05:16:59;1.13;;;1.03;;
10904;SDS011;5505;51.450;9.254;2023-02-28T05:19:46;2.00;;;1.03;;
10904;SDS011;5505;51.450;9.254;2023-02-28T05:22:32;2.77;;;1.17;;
10904;SDS011;5505;51.450;9.254;2023-02-28T05:25:21;1.57;;;0.97;;
10904;SDS011;5505;51.450;9.254;2023-02-28T05:28:08;1.20;;;1.10;;
10904;SDS011;5505;51.450;9.254;2023-02-28T05:30:54;1.93;;;1.30;;
10904;SDS011;5505;51.450;9.254;2023-02-28T05:33:41;3.10;;;1.10;;
10904;SDS011;5505;51.450;9.254;2023-02-28T05:36:28;1.70;;;1.10;;
10904;SDS011;5505;51.450;9.254;2023-02-28T05:39:15;2.00;;;1.40;;
10904;SDS011;5505;51.450;9.254;2023-02-28T05:42:03;1.43;;;1.10;;
10904;SDS011;5505;51.450;9.254;2023-02-28T05:44:51;1.33;;;1.10;;
10904;SDS011;5505;51.450;9.254;2023-02-28T05:47:38;2.13;;;1.50;;
10904;SDS011;5505;51.450;9.254;2023-02-28T05:50:25;1.30;;;1.20;;
10904;SDS011;5505;51.450;9.254;2023-02-28T05:53:11;2.63;;;1.30;;
10904;SDS011;5505;51.450;9.254;2023-02-28T05:55:58;2.33;;;1.30;;
10904;SDS011;5505;51.450;9.254;2023-02-28T05:58:47;1.20;;;1.00;;
10904;SDS011;5505;51.450;9.254;2023-02-28T06:01:34;1.63;;;1.20;;
10904;SDS011;5505;51.450;9.254;2023-02-28T06:04:22;1.40;;;1.10;;
10904;SDS011;5505;51.450;9.254;2023-02-28T06:07:09;1.63;;;0.80;;
10904;SDS011;5505;51.450;9.254;2023-02-28T06:09:56;2.40;;;1.07;;
10904;SDS011;5505;51.450;9.254;2023-02-28T06:12:43;1.80;;;1.00;;
10904;SDS011;5505;51.450;9.254;2023-02-28T06:15:32;3.73;;;1.10;;
10904;SDS011;5505;51.450;9.254;2023-02-28T06:18:19;1.30;;;0.90;;
10904;SDS011;5505;51.450;9.254;2023-02-28T06:21:06;2.13;;;1.00;;
10904;SDS011;5505;51.450;9.254;2023-02-28T06:23:53;2.50;;;1.17;;
10904;SDS011;5505;51.450;9.254;2023-02-28T06:26:41;1.10;;;1.00;;
10904;SDS011;5505;51.450;9.254;2023-02-28T06:29:27;1.33;;;0.97;;
10904;SDS011;5505;51.450;9.254;2023-02-28T06:32:15;1.10;;;0.90;;
10904;SDS011;5505;51.450;9.254;2023-02-28T06:35:02;2.57;;;1.30;;
10904;SDS011;5505;51.450;9.254;2023-02-28T06:37:50;2.17;;;0.97;;
10904;SDS011;5505;51.450;9.254;2023-02-28T06:40:36;1.63;;;0.97;;
10904;SDS011;5505;51.450;9.254;2023-02-28T06:43:23;3.57;;;1.07;;
10904;SDS011;5505;51.450;9.254;2023-02-28T06:46:12;1.27;;;0.87;;
10904;SDS011;5505;51.450;9.254;2023-02-28T06:49:01;1.63;;;0.80;;
10904;SDS011;5505;51.450;9.254;2023-02-28T06:51:49;1.73;;;1.20;;
10904;SDS011;5505;51.450;9.254;2023-02-28T06:54:36;1.40;;;1.00;;
10904;SDS011;5505;51.450;9.254;2023-02-28T06:57:22;1.53;;;1.00;;
10904;SDS011;5505;51.450;9.254;2023-02-28T07:00:10;2.67;;;1.30;;
10904;SDS011;5505;51.450;9.254;2023-02-28T07:02:58;2.20;;;1.13;;
10904;SDS011;5505;51.450;9.254;2023-02-28T07:05:46;1.60;;;1.20;;
10904;SDS011;5505;51.450;9.254;2023-02-28T07:08:33;2.23;;;1.33;;
10904;SDS011;5505;51.450;9.254;2023-02-28T07:11:20;4.03;;;1.13;;
10904;SDS011;5505;51.450;9.254;2023-02-28T07:14:10;1.77;;;1.20;;
10904;SDS011;5505;51.450;9.254;2023-02-28T07:16:57;2.03;;;1.00;;
10904;SDS011;5505;51.450;9.254;2023-02-28T07:19:43;1.87;;;1.20;;
10904;SDS011;5505;51.450;9.254;2023-02-28T07:22:32;1.10;;;1.00;;
10904;SDS011;5505;51.450;9.254;2023-02-28T07:25:18;2.10;;;1.10;;
10904;SDS011;5505;51.450;9.254;2023-02-28T07:28:08;1.73;;;1.30;;
10904;SDS011;5505;51.450;9.254;2023-02-28T07:30:55;2.97;;;1.40;;
10904;SDS011;5505;51.450;9.254;2023-02-28T07:33:42;1.73;;;1.30;;
10904;SDS011;5505;51.450;9.254;2023-02-28T07:36:29;1.40;;;1.30;;
10904;SDS011;5505;51.450;9.254;2023-02-28T07:39:17;1.50;;;1.20;;
10904;SDS011;5505;51.450;9.254;2023-02-28T07:42:04;3.37;;;1.53;;
10904;SDS011;5505;51.450;9.254;2023-02-28T07:44:51;2.30;;;1.40;;
10904;SDS011;5505;51.450;9.254;2023-02-28T07:47:38;1.63;;;1.43;;
10904;SDS011;5505;51.450;9.254;2023-02-28T07:50:25;1.20;;;1.10;;
10904;SDS011;5505;51.450;9.254;2023-02-28T07:53:14;1.30;;;1.10;;
10904;SDS011;5505;51.450;9.254;2023-02-28T07:56:02;1.40;;;1.30;;
10904;SDS011;5505;51.450;9.254;2023-02-28T07:58:49;1.60;;;1.50;;
10904;SDS011;5505;51.450;9.254;2023-02-28T08:01:36;1.50;;;1.20;;
10904;SDS011;5505;51.450;9.254;2023-02-28T08:04:23;1.10;;;1.00;;
10904;SDS011;5505;51.450;9.254;2023-02-28T08:07:10;1.27;;;1.17;;
10904;SDS011;5505;51.450;9.254;2023-02-28T08:09:58;2.67;;;1.53;;
10904;SDS011;5505;51.450;9.254;2023-02-28T08:12:46;1.97;;;1.40;;
10904;SDS011;5505;51.450;9.254;2023-02-28T08:15:33;1.20;;;1.10;;
10904;SDS011;5505;51.450;9.254;2023-02-28T08:18:21;3.23;;;1.37;;
10904;SDS011;5505;51.450;9.254;2023-02-28T08:21:08;1.33;;;1.23;;
10904;SDS011;5505;51.450;9.254;2023-02-28T08:23:56;1.20;;;1.10;;
10904;SDS011;5505;51.450;9.254;2023-02-28T08:26:43;2.30;;;1.37;;
10904;SDS011;5505;51.450;9.254;2023-02-28T08:29:31;1.63;;;1.40;;
10904;SDS011;5505;51.450;9.254;2023-02-28T08:32:18;1.53;;;1.00;;
10904;SDS011;5505;51.450;9.254;2023-02-28T08:35:05;2.83;;;1.33;;
10904;SDS011;5505;51.450;9.254;2023-02-28T08:37:54;1.03;;;0.93;;
10904;SDS011;5505;51.450;9.254;2023-02-28T08:40:40;1.50;;;1.30;;
10904;SDS011;5505;51.450;9.254;2023-02-28T08:43:28;1.20;;;1.10;;
10904;SDS011;5505;51.450;9.254;2023-02-28T08:46:16;1.47;;;1.37;;
10904;SDS011;5505;51.450;9.254;2023-02-28T08:49:03;1.13;;;1.03;;
10904;SDS011;5505;51.450;9.254;2023-02-28T08:51:50;1.03;;;0.93;;
10904;SDS011;5505;51.450;9.254;2023-02-28T08:54:37;2.53;;;1.33;;
10904;SDS011;5505;51.450;9.254;2023-02-28T08:57:24;1.27;;;1.17;;
10904;SDS011;5505;51.450;9.254;2023-02-28T09:00:12;1.27;;;1.17;;
10904;SDS011;5505;51.450;9.254;2023-02-28T09:03:01;3.23;;;1.23;;
10904;SDS011;5505;51.450;9.254;2023-02-28T09:05:51;1.87;;;1.17;;
10904;SDS011;5505;51.450;9.254;2023-02-28T09:08:39;2.73;;;1.17;;
10904;SDS011;5505;51.450;9.254;2023-02-28T09:11:26;1.70;;;1.60;;
10904;SDS011;5505;51.450;9.254;2023-02-28T09:14:14;1.13;;;1.07;;
10904;SDS011;5505;51.450;9.254;2023-02-28T09:17:02;2.30;;;1.80;;
10904;SDS011;5505;51.450;9.254;2023-02-28T09:19:50;1.70;;;1.60;;
10904;SDS011;5505;51.450;9.254;2023-02-28T09:22:37;1.30;;;1.20;;
10904;SDS011;5505;51.450;9.254;2023-02-28T09:25:24;2.70;;;1.60;;
10904;SDS011;5505;51.450;9.254;2023-02-28T09:28:11;3.93;;;1.77;;
10904;SDS011;5505;51.450;9.254;2023-02-28T09:30:59;1.77;;;1.20;;
10904;SDS011;5505;51.450;9.254;2023-02-28T09:33:46;2.27;;;1.43;;
10904;SDS011;5505;51.450;9.254;2023-02-28T09:36:34;2.23;;;1.57;;
10904;SDS011;5505;51.450;9.254;2023-02-28T09:39:23;2.47;;;1.60;;
10904;SDS011;5505;51.450;9.254;2023-02-28T09:42:13;1.60;;;1.40;;
10904;SDS011;5505;51.450;9.254;2023-02-28T09:45:11;2.37;;;1.77;;
10904;SDS011;5505;51.450;9.254;2023-02-28T09:48:06;1.40;;;1.23;;
10904;SDS011;5505;51.450;9.254;2023-02-28T09:51:00;1.70;;;1.40;;
10904;SDS011;5505;51.450;9.254;2023-02-28T09:53:50;3.30;;;1.60;;
10904;SDS011;5505;51.450;9.254;2023-02-28T09:56:38;1.13;;;1.03;;
10904;SDS011;5505;51.450;9.254;2023-02-28T09:59:38;1.60;;;1.00;;
10904;SDS011;5505;51.450;9.254;2023-02-28T10:02:41;1.30;;;1.03;;
10904;SDS011;5505;51.450;9.254;2023-02-28T10:05:36;2.63;;;1.57;;
10904;SDS011;5505;51.450;9.254;2023-02-28T10:08:27;3.67;;;1.50;;
10904;SDS011;5505;51.450;9.254;2023-02-28T10:11:21;1.93;;;1.37;;
10904;SDS011;5505;51.450;9.254;2023-02-28T10:14:11;3.37;;;1.50;;
10904;SDS011;5505;51.450;9.254;2023-02-28T10:17:01;1.60;;;1.50;;
10904;SDS011;5505;51.450;9.254;2023-02-28T10:19:54;2.70;;;1.37;;
10904;SDS011;5505;51.450;9.254;2023-02-28T10:22:50;2.23;;;1.17;;
10904;SDS011;5505;51.450;9.254;2023-02-28T10:25:44;1.57;;;1.07;;
10904;SDS011;5505;51.450;9.254;2023-02-28T10:28:37;1.93;;;1.33;;
10904;SDS011;5505;51.450;9.254;2023-02-28T10:31:24;2.67;;;1.37;;
10904;SDS011;5505;51.450;9.254;2023-02-28T10:34:11;1.37;;;0.90;;
10904;SDS011;5505;51.450;9.254;2023-02-28T10:37:00;1.30;;;1.20;;
10904;SDS011;5505;51.450;9.254;2023-02-28T10:39:52;1.60;;;1.50;;
10904;SDS011;5505;51.450;9.254;2023-02-28T10:42:39;1.60;;;1.37;;
10904;SDS011;5505;51.450;9.254;2023-02-28T10:45:28;1.57;;;1.30;;
10904;SDS011;5505;51.450;9.254;2023-02-28T10:48:26;1.77;;;1.63;;
10904;SDS011;5505;51.450;9.254;2023-02-28T10:51:16;1.83;;;1.63;;
10904;SDS011;5505;51.450;9.254;2023-02-28T10:54:05;3.07;;;1.20;;
10904;SDS011;5505;51.450;9.254;2023-02-28T10:57:08;1.60;;;1.33;;
10904;SDS011;5505;51.450;9.254;2023-02-28T11:00:07;2.83;;;1.70;;
10904;SDS011;5505;51.450;9.254;2023-02-28T11:03:03;1.93;;;1.70;;
10904;SDS011;5505;51.450;9.254;2023-02-28T11:06:13;2.00;;;1.87;;
10904;SDS011;5505;51.450;9.254;2023-02-28T11:09:04;1.43;;;1.33;;
10904;SDS011;5505;51.450;9.254;2023-02-28T11:12:03;2.77;;;1.87;;
10904;SDS011;5505;51.450;9.254;2023-02-28T11:14:54;1.77;;;1.67;;
10904;SDS011;5505;51.450;9.254;2023-02-28T11:17:43;2.07;;;1.73;;
10904;SDS011;5505;51.450;9.254;2023-02-28T11:20:40;1.57;;;1.47;;
10904;SDS011;5505;51.450;9.254;2023-02-28T11:23:28;3.03;;;2.00;;
10904;SDS011;5505;51.450;9.254;2023-02-28T11:26:17;2.33;;;2.00;;
10904;SDS011;5505;51.450;9.254;2023-02-28T11:29:23;2.10;;;1.90;;
10904;SDS011;5505;51.450;9.254;2023-02-28T11:32:12;3.43;;;2.20;;
10904;SDS011;5505;51.450;9.254;2023-02-28T11:35:03;2.20;;;2.00;;
10904;SDS011;5505;51.450;9.254;2023-02-28T11:38:07;2.67;;;2.03;;
10904;SDS011;5505;51.450;9.254;2023-02-28T11:41:05;2.00;;;1.90;;
10904;SDS011;5505;51.450;9.254;2023-02-28T11:44:04;1.83;;;1.73;;
10904;SDS011;5505;51.450;9.254;2023-02-28T11:47:04;3.53;;;2.00;;
10904;SDS011;5505;51.450;9.254;2023-02-28T11:49:59;2.33;;;1.93;;
10904;SDS011;5505;51.450;9.254;2023-02-28T11:52:56;1.63;;;1.53;;
10904;SDS011;5505;51.450;9.254;2023-02-28T11:55:50;2.77;;;2.10;;
10904;SDS011;5505;51.450;9.254;2023-02-28T11:58:42;2.47;;;1.93;;
10904;SDS011;5505;51.450;9.254;2023-02-28T12:01:38;2.57;;;2.00;;
10904;SDS011;5505;51.450;9.254;2023-02-28T12:04:47;2.70;;;2.37;;
10904;SDS011;5505;51.450;9.254;2023-02-28T12:07:47;2.83;;;2.33;;
10904;SDS011;5505;51.450;9.254;2023-02-28T12:10:43;2.80;;;2.17;;
10904;SDS011;5505;51.450;9.254;2023-02-28T12:13:43;1.87;;;1.30;;
10904;SDS011;5505;51.450;9.254;2023-02-28T12:16:48;2.50;;;2.03;;
10904;SDS011;5505;51.450;9.254;2023-02-28T12:19:50;2.77;;;2.17;;
10904;SDS011;5505;51.450;9.254;2023-02-28T12:22:47;2.30;;;2.10;;
10904;SDS011;5505;51.450;9.254;2023-02-28T12:25:47;2.57;;;2.20;;
10904;SDS011;5505;51.450;9.254;2023-02-28T12:28:52;3.20;;;2.10;;
10904;SDS011;5505;51.450;9.254;2023-02-28T12:31:45;2.17;;;1.97;;
10904;SDS011;5505;51.450;9.254;2023-02-28T12:34:36;2.03;;;1.83;;
10904;SDS011;5505;51.450;9.254;2023-02-28T12:37:28;2.60;;;2.40;;
10904;SDS011;5505;51.450;9.254;2023-02-28T12:40:20;2.40;;;2.20;;
10904;SDS011;5505;51.450;9.254;2023-02-28T12:43:09;2.50;;;2.30;;
10904;SDS011;5505;51.450;9.254;2023-02-28T12:46:00;3.23;;;2.63;;
10904;SDS011;5505;51.450;9.254;2023-02-28T12:48:52;2.07;;;1.87;;
10904;SDS011;5505;51.450;9.254;2023-02-28T12:51:41;2.63;;;2.40;;
10904;SDS011;5505;51.450;9.254;2023-02-28T12:54:31;2.80;;;2.30;;
10904;SDS011;5505;51.450;9.254;2023-02-28T12:57:25;2.83;;;2.40;;
10904;SDS011;5505;51.450;9.254;2023-02-28T13:00:21;3.80;;;2.40;;
10904;SDS011;5505;51.450;9.254;2023-02-28T13:06:37;3.60;;;2.20;;
10904;SDS011;5505;51.450;9.254;2023-02-28T13:09:36;3.60;;;2.47;;
10904;SDS011;5505;51.450;9.254;2023-02-28T13:12:24;2.77;;;2.20;;
10904;SDS011;5505;51.450;9.254;2023-02-28T13:15:16;1.60;;;1.50;;
10904;SDS011;5505;51.450;9.254;2023-02-28T13:18:20;3.90;;;2.73;;
10904;SDS011;5505;51.450;9.254;2023-02-28T13:21:23;2.93;;;2.20;;
10904;SDS011;5505;51.450;9.254;2023-02-28T13:27:36;2.60;;;2.40;;
10904;SDS011;5505;51.450;9.254;2023-02-28T13:34:04;1.77;;;1.67;;
10904;SDS011;5505;51.450;9.254;2023-02-28T13:40:28;2.93;;;2.50;;
10904;SDS011;5505;51.450;9.254;2023-02-28T13:43:24;3.60;;;2.27;;
10904;SDS011;5505;51.450;9.254;2023-02-28T13:50:24;3.30;;;2.50;;
10904;SDS011;5505;51.450;9.254;2023-02-28T13:53:32;2.53;;;2.33;;
10904;SDS011;5505;51.450;9.254;2023-02-28T13:56:42;3.00;;;2.47;;
10904;SDS011;5505;51.450;9.254;2023-02-28T13:59:33;6.30;;;2.80;;
10904;SDS011;5505;51.450;9.254;2023-02-28T14:02:34;2.97;;;2.37;;
10904;SDS011;5505;51.450;9.254;2023-02-28T14:05:29;3.10;;;1.97;;
10904;SDS011;5505;51.450;9.254;2023-02-28T14:08:19;4.73;;;2.50;;
10904;SDS011;5505;51.450;9.254;2023-02-28T14:11:16;2.73;;;2.43;;
10904;SDS011;5505;51.450;9.254;2023-02-28T14:17:28;2.40;;;1.97;;
10904;SDS011;5505;51.450;9.254;2023-02-28T14:20:15;3.10;;;2.33;;
10904;SDS011;5505;51.450;9.254;2023-02-28T14:23:04;3.10;;;2.63;;
10904;SDS011;5505;51.450;9.254;2023-02-28T14:25:59;3.97;;;2.70;;
10904;SDS011;5505;51.450;9.254;2023-02-28T14:29:03;2.23;;;1.97;;
10904;SDS011;5505;51.450;9.254;2023-02-28T14:32:05;2.80;;;2.23;;
10904;SDS011;5505;51.450;9.254;2023-02-28T14:35:02;3.10;;;2.23;;
10904;SDS011;5505;51.450;9.254;2023-02-28T14:37:58;3.13;;;2.17;;
10904;SDS011;5505;51.450;9.254;2023-02-28T14:40:45;2.40;;;2.20;;
10904;SDS011;5505;51.450;9.254;2023-02-28T14:43:33;4.13;;;2.70;;
10904;SDS011;5505;51.450;9.254;2023-02-28T14:46:22;4.57;;;2.50;;
10904;SDS011;5505;51.450;9.254;2023-02-28T14:49:13;2.33;;;2.13;;
10904;SDS011;5505;51.450;9.254;2023-02-28T14:52:14;2.80;;;2.40;;
10904;SDS011;5505;51.450;9.254;2023-02-28T14:55:05;2.60;;;2.30;;
10904;SDS011;5505;51.450;9.254;2023-02-28T14:57:59;2.30;;;2.03;;
10904;SDS011;5505;51.450;9.254;2023-02-28T15:00:48;3.23;;;1.93;;
10904;SDS011;5505;51.450;9.254;2023-02-28T15:03:39;3.83;;;2.33;;
10904;SDS011;5505;51.450;9.254;2023-02-28T15:06:29;2.50;;;2.30;;
10904;SDS011;5505;51.450;9.254;2023-02-28T15:09:17;2.77;;;2.03;;
10904;SDS011;5505;51.450;9.254;2023-02-28T15:12:05;3.33;;;2.50;;
10904;SDS011;5505;51.450;9.254;2023-02-28T15:14:52;2.37;;;2.17;;
10904;SDS011;5505;51.450;9.254;2023-02-28T15:17:39;2.50;;;2.30;;
10904;SDS011;5505;51.450;9.254;2023-02-28T15:20:29;4.47;;;2.10;;
10904;SDS011;5505;51.450;9.254;2023-02-28T15:23:18;4.30;;;2.30;;
10904;SDS011;5505;51.450;9.254;2023-02-28T15:26:06;2.40;;;2.10;;
10904;SDS011;5505;51.450;9.254;2023-02-28T15:28:57;2.70;;;2.20;;
10904;SDS011;5505;51.450;9.254;2023-02-28T15:31:48;2.70;;;2.30;;
10904;SDS011;5505;51.450;9.254;2023-02-28T15:34:39;2.87;;;2.50;;
10904;SDS011;5505;51.450;9.254;2023-02-28T15:37:30;5.43;;;2.10;;
10904;SDS011;5505;51.450;9.254;2023-02-28T15:40:26;3.07;;;2.17;;
10904;SDS011;5505;51.450;9.254;2023-02-28T15:43:14;3.30;;;2.07;;
10904;SDS011;5505;51.450;9.254;2023-02-28T15:46:03;3.17;;;2.63;;
10904;SDS011;5505;51.450;9.254;2023-02-28T15:48:52;2.43;;;2.10;;
10904;SDS011;5505;51.450;9.254;2023-02-28T15:51:41;3.40;;;2.40;;
10904;SDS011;5505;51.450;9.254;2023-02-28T15:54:30;3.33;;;2.37;;
10904;SDS011;5505;51.450;9.254;2023-02-28T15:57:20;2.23;;;2.03;;
10904;SDS011;5505;51.450;9.254;2023-02-28T16:00:10;2.70;;;2.20;;
10904;SDS011;5505;51.450;9.254;2023-02-28T16:02:58;3.53;;;2.10;;
10904;SDS011;5505;51.450;9.254;2023-02-28T16:05:45;2.40;;;2.03;;
10904;SDS011;5505;51.450;9.254;2023-02-28T16:08:32;2.40;;;2.10;;
10904;SDS011;5505;51.450;9.254;2023-02-28T16:11:20;3.90;;;2.50;;
10904;SDS011;5505;51.450;9.254;2023-02-28T16:14:11;5.33;;;2.77;;
10904;SDS011;5505;51.450;9.254;2023-02-28T16:17:02;4.63;;;2.83;;
10904;SDS011;5505;51.450;9.254;2023-02-28T16:19:50;2.37;;;2.17;;
10904;SDS011;5505;51.450;9.254;2023-02-28T16:22:37;2.37;;;2.10;;
10904;SDS011;5505;51.450;9.254;2023-02-28T16:25:25;4.07;;;2.50;;
10904;SDS011;5505;51.450;9.254;2023-02-28T16:28:18;5.17;;;3.03;;
10904;SDS011;5505;51.450;9.254;2023-02-28T16:31:07;3.83;;;2.70;;
10904;SDS011;5505;51.450;9.254;2023-02-28T16:34:01;3.23;;;2.50;;
10904;SDS011;5505;51.450;9.254;2023-02-28T16:36:48;3.13;;;2.60;;
10904;SDS011;5505;51.450;9.254;2023-02-28T16:39:35;2.47;;;2.27;;
10904;SDS011;5505;51.450;9.254;2023-02-28T16:42:23;3.33;;;3.03;;
10904;SDS011;5505;51.450;9.254;2023-02-28T16:45:18;4.63;;;2.90;;
10904;SDS011;5505;51.450;9.254;2023-02-28T16:48:08;5.10;;;2.80;;
10904;SDS011;5505;51.450;9.254;2023-02-28T16:50:58;4.57;;;2.93;;
10904;SDS011;5505;51.450;9.254;2023-02-28T16:53:45;3.73;;;2.67;;
10904;SDS011;5505;51.450;9.254;2023-02-28T16:56:33;3.47;;;2.73;;
10904;SDS011;5505;51.450;9.254;2023-02-28T16:59:21;3.30;;;3.00;;
10904;SDS011;5505;51.450;9.254;2023-02-28T17:02:11;5.47;;;3.10;;
10904;SDS011;5505;51.450;9.254;2023-02-28T17:05:00;3.50;;;3.10;;
10904;SDS011;5505;51.450;9.254;2023-02-28T17:07:47;6.50;;;3.07;;
10904;SDS011;5505;51.450;9.254;2023-02-28T17:10:34;3.70;;;3.07;;
10904;SDS011;5505;51.450;9.254;2023-02-28T17:13:21;4.30;;;3.50;;
10904;SDS011;5505;51.450;9.254;2023-02-28T17:16:10;3.77;;;3.23;;
10904;SDS011;5505;51.450;9.254;2023-02-28T17:19:05;4.13;;;3.27;;
10904;SDS011;5505;51.450;9.254;2023-02-28T17:21:53;3.40;;;3.10;;
10904;SDS011;5505;51.450;9.254;2023-02-28T17:24:40;3.80;;;3.20;;
10904;SDS011;5505;51.450;9.254;2023-02-28T17:27:26;3.30;;;3.00;;
10904;SDS011;5505;51.450;9.254;2023-02-28T17:30:14;3.97;;;3.13;;
10904;SDS011;5505;51.450;9.254;2023-02-28T17:33:03;3.97;;;3.33;;
10904;SDS011;5505;51.450;9.254;2023-02-28T17:35:51;3.67;;;3.27;;
10904;SDS011;5505;51.450;9.254;2023-02-28T17:38:38;4.53;;;3.93;;
10904;SDS011;5505;51.450;9.254;2023-02-28T17:41:25;6.00;;;5.10;;
10904;SDS011;5505;51.450;9.254;2023-02-28T17:44:14;6.67;;;4.00;;